createdAt,value
2024-02-04T00:02:28.207Z,34.80
2024-02-04T00:05:02.907Z,23.23
2024-02-04T00:07:34.432Z,19.33
2024-02-04T00:10:11.377Z,29.35
2024-02-04T00:12:41.443Z,27.17
2024-02-04T00:15:14.011Z,23.90
2024-02-04T00:17:42.939Z,33.17
2024-02-04T00:20:15.238Z,27.45
2024-02-04T00:22:44.083Z,26.75
2024-02-04T00:25:20.506Z,29.10
2024-02-04T00:27:49.540Z,30.83
2024-02-04T00:30:18.502Z,28.00
2024-02-04T00:32:49.810Z,26.13
2024-02-04T00:35:18.676Z,28.08
2024-02-04T00:37:48.601Z,38.22
2024-02-04T00:40:22.965Z,20.23
2024-02-04T00:42:54.189Z,21.75
2024-02-04T00:45:23.169Z,23.88
2024-02-04T00:47:54.247Z,27.65
2024-02-04T00:50:23.129Z,17.52
2024-02-04T00:52:54.493Z,30.65
2024-02-04T00:55:24.837Z,16.60
2024-02-04T00:57:53.872Z,26.90
2024-02-04T01:00:22.941Z,30.88
2024-02-04T01:02:51.878Z,22.67
2024-02-04T01:05:20.879Z,35.33
2024-02-04T01:07:49.630Z,29.25
2024-02-04T06:08:57.155Z,35.13
2024-02-04T06:11:26.035Z,51.47
2024-02-04T06:13:55.217Z,49.47
2024-02-04T06:16:24.317Z,33.15
2024-02-04T06:18:57.011Z,31.10
2024-02-04T06:21:26.698Z,40.58
2024-02-04T06:23:57.258Z,28.85
2024-02-04T06:26:26.744Z,26.20
2024-02-04T06:28:56.077Z,24.20
2024-02-04T06:31:27.522Z,19.55
2024-02-04T06:33:57.082Z,27.08
2024-02-04T06:36:26.403Z,22.33
2024-02-04T06:38:57.356Z,29.38
2024-02-04T06:41:26.658Z,17.30
2024-02-04T06:43:55.908Z,22.30
2024-02-04T06:46:28.465Z,24.40
2024-02-04T06:48:58.205Z,21.90
2024-02-04T06:51:27.827Z,19.30
2024-02-04T06:53:58.400Z,15.38
2024-02-04T06:56:27.699Z,22.95
2024-02-04T06:58:56.883Z,20.10
2024-02-04T07:01:27.205Z,19.75
2024-02-04T07:03:56.713Z,16.50
2024-02-04T07:06:26.282Z,11.90
2024-02-04T07:09:44.765Z,21.58
2024-02-04T07:13:20.982Z,16.83
2024-02-04T07:15:53.846Z,13.80
2024-02-04T07:18:25.009Z,14.23
2024-02-04T07:20:56.121Z,12.63
2024-02-04T07:23:25.795Z,14.90
2024-02-04T07:25:55.081Z,22.20
2024-02-04T07:28:26.004Z,18.02
2024-02-04T07:30:57.481Z,9.07
2024-02-04T07:33:27.796Z,11.50
2024-02-04T07:35:58.644Z,8.18
2024-02-04T07:38:28.186Z,11.80
2024-02-04T07:41:02.587Z,9.45
2024-02-04T07:43:33.377Z,9.75
2024-02-04T07:46:05.395Z,11.65
2024-02-04T07:48:35.296Z,10.95
2024-02-04T07:51:04.906Z,7.47
2024-02-04T07:53:34.337Z,7.80
2024-02-04T07:56:04.792Z,12.20
2024-02-04T07:58:37.802Z,17.90
2024-02-04T08:01:07.425Z,17.08
2024-02-04T08:03:37.020Z,18.33
2024-02-04T08:06:06.725Z,14.85
2024-02-04T08:08:38.337Z,13.93
2024-02-04T08:11:07.625Z,15.45
2024-02-04T08:13:38.410Z,16.33
2024-02-04T08:16:15.078Z,10.98
2024-02-04T08:18:44.334Z,11.65
2024-02-04T08:21:13.797Z,7.80
2024-02-04T08:23:43.326Z,8.73
2024-02-04T08:26:12.611Z,21.45
2024-02-04T08:28:43.959Z,9.25
2024-02-04T08:31:12.505Z,8.93
2024-02-04T08:33:41.723Z,8.60
2024-02-04T08:36:11.848Z,7.65
2024-02-04T08:38:43.507Z,10.82
2024-02-04T08:41:12.737Z,7.90
2024-02-04T08:43:43.433Z,9.50
2024-02-04T08:46:15.516Z,11.45
2024-02-04T08:48:45.309Z,3.97
2024-02-04T08:51:17.260Z,8.50
2024-02-04T08:54:07.171Z,8.25
2024-02-04T08:56:39.106Z,6.40
2024-02-04T08:59:10.110Z,8.90
2024-02-04T09:01:42.058Z,6.85
2024-02-04T09:04:11.351Z,13.43
2024-02-04T09:06:40.548Z,9.52
2024-02-04T09:09:10.755Z,3.63
2024-02-04T09:11:39.902Z,5.35
2024-02-04T09:14:13.036Z,6.53
2024-02-04T09:16:42.622Z,7.43
2024-02-04T09:19:12.072Z,7.00
2024-02-04T09:21:46.200Z,6.95
2024-02-04T09:24:15.691Z,3.90
2024-02-04T09:26:45.635Z,3.40
2024-02-04T09:29:16.967Z,13.25
2024-02-04T09:31:46.365Z,4.55
2024-02-04T09:34:20.971Z,10.95
2024-02-04T09:36:52.089Z,6.45
2024-02-04T09:39:21.276Z,5.45
2024-02-04T09:41:50.303Z,3.90
2024-02-04T09:44:25.548Z,5.60
2024-02-04T09:47:00.843Z,9.40
2024-02-04T09:49:31.598Z,9.20
2024-02-04T09:52:02.686Z,9.57
2024-02-04T09:54:33.799Z,7.70
2024-02-04T09:57:03.668Z,10.02
2024-02-04T09:59:34.201Z,6.15
2024-02-04T10:02:06.242Z,4.88
2024-02-04T10:04:36.324Z,5.97
2024-02-04T10:07:06.200Z,5.70
2024-02-04T10:09:35.794Z,2.55
2024-02-04T10:12:05.824Z,3.55
2024-02-04T10:14:36.621Z,3.42
2024-02-04T10:17:06.618Z,2.40
2024-02-04T10:19:36.197Z,4.43
2024-02-04T10:22:06.656Z,5.68
2024-02-04T10:24:36.097Z,8.18
2024-02-04T10:27:08.542Z,2.88
2024-02-04T10:29:42.227Z,4.80
2024-02-04T10:32:12.636Z,5.50
2024-02-04T10:34:42.072Z,3.58
2024-02-04T10:37:11.408Z,3.92
2024-02-04T10:39:40.553Z,5.70
2024-02-04T10:42:10.665Z,4.03
2024-02-04T10:44:48.859Z,3.15
2024-02-04T10:47:24.159Z,10.93
2024-02-04T10:49:55.961Z,10.40
2024-02-04T10:52:28.327Z,10.40
2024-02-04T10:55:01.021Z,12.27
2024-02-04T10:57:32.023Z,9.60
2024-02-04T11:00:05.854Z,8.75
2024-02-04T11:02:37.493Z,19.00
2024-02-04T11:05:10.929Z,8.38
2024-02-04T11:07:41.026Z,9.93
2024-02-04T11:10:11.623Z,13.02
2024-02-04T11:12:43.588Z,7.00
2024-02-04T11:15:17.765Z,6.28
2024-02-04T11:18:04.866Z,3.92
2024-02-04T11:20:49.584Z,9.10
2024-02-04T11:23:38.156Z,7.32
2024-02-04T11:56:27.354Z,11.90
2024-02-04T11:58:58.389Z,8.60
2024-02-04T12:01:27.774Z,6.93
2024-02-04T12:04:04.591Z,4.20
2024-02-04T12:06:34.532Z,8.73
2024-02-04T12:09:05.428Z,7.35
2024-02-04T12:11:35.424Z,6.90
2024-02-04T12:14:11.122Z,9.35
2024-02-04T12:16:43.086Z,12.52
2024-02-04T12:19:12.365Z,4.90
2024-02-04T12:21:41.823Z,6.20
2024-02-04T12:24:11.382Z,12.70
2024-02-04T12:26:41.898Z,17.63
2024-02-04T12:29:12.824Z,7.43
2024-02-04T12:31:43.095Z,9.60
2024-02-04T12:34:13.782Z,23.08
2024-02-04T12:36:49.426Z,10.55
2024-02-04T12:39:22.059Z,8.63
2024-02-04T12:41:54.128Z,10.85
2024-02-04T12:44:26.900Z,12.35
2024-02-04T12:46:56.325Z,9.15
2024-02-04T12:49:26.419Z,3.55
2024-02-04T12:52:07.112Z,10.43
2024-02-04T12:54:44.303Z,6.20
2024-02-04T12:57:24.568Z,7.72
2024-02-04T12:59:55.789Z,8.50
2024-02-04T13:02:27.576Z,7.53
2024-02-04T13:04:57.213Z,10.75
2024-02-04T13:07:27.321Z,5.00
2024-02-04T13:10:02.175Z,9.60
2024-02-04T13:12:34.501Z,9.40
2024-02-04T13:15:08.544Z,12.23
2024-02-04T13:17:37.696Z,11.13
2024-02-04T13:20:08.801Z,12.27
2024-02-04T13:22:38.204Z,7.90
2024-02-04T13:25:08.843Z,6.40
2024-02-04T13:27:37.864Z,6.65
2024-02-04T13:30:13.473Z,9.07
2024-02-04T13:32:43.044Z,6.15
2024-02-04T13:35:16.836Z,7.95
2024-02-04T13:37:52.989Z,7.55
2024-02-04T13:40:23.071Z,10.32
2024-02-04T13:42:52.563Z,18.95
2024-02-04T13:45:23.887Z,10.15
2024-02-04T13:47:53.350Z,12.45
2024-02-04T13:50:25.445Z,12.48
2024-02-04T13:52:54.899Z,15.07
2024-02-04T13:55:24.228Z,11.32
2024-02-04T13:57:53.710Z,7.80
2024-02-04T14:00:24.435Z,13.15
2024-02-04T14:02:53.600Z,9.27
2024-02-04T14:05:24.953Z,10.45
2024-02-04T14:07:56.702Z,15.80
2024-02-04T14:10:30.187Z,10.85
2024-02-04T14:12:59.763Z,13.07
2024-02-04T14:15:36.690Z,13.32
2024-02-04T14:18:06.862Z,9.50
2024-02-04T14:20:36.156Z,10.43
2024-02-04T14:23:05.927Z,11.68
2024-02-04T14:25:35.304Z,11.45
2024-02-04T14:28:05.703Z,14.43
2024-02-04T14:30:39.277Z,11.45
2024-02-04T14:33:09.651Z,8.20
2024-02-04T14:35:39.511Z,11.23
2024-02-04T14:38:09.114Z,16.35
2024-02-04T14:40:38.208Z,20.05
2024-02-04T14:43:07.347Z,9.30
2024-02-04T14:45:36.931Z,22.33
2024-02-04T14:48:09.109Z,11.25
2024-02-04T14:50:38.532Z,10.15
2024-02-04T14:53:08.393Z,14.80
2024-02-04T14:55:37.823Z,12.65
2024-02-04T14:58:07.264Z,15.80
2024-02-04T15:00:39.252Z,13.93
2024-02-04T15:03:12.144Z,22.42
2024-02-04T15:05:45.816Z,16.95
2024-02-04T15:08:17.812Z,21.13
2024-02-04T15:10:47.092Z,21.73
2024-02-04T15:13:17.082Z,23.77
2024-02-04T15:15:47.644Z,19.80
2024-02-04T15:18:19.313Z,14.10
2024-02-04T15:20:49.566Z,22.73
2024-02-04T15:23:23.859Z,21.35
2024-02-04T15:25:53.958Z,16.92
2024-02-04T15:28:23.761Z,17.70
2024-02-04T15:30:53.434Z,13.75
2024-02-04T15:33:29.970Z,21.67
2024-02-04T15:35:59.120Z,19.00
2024-02-04T15:38:28.746Z,21.08
2024-02-04T15:40:58.506Z,35.92
2024-02-04T15:43:27.380Z,15.48
2024-02-04T15:46:00.309Z,25.27
2024-02-04T15:48:36.524Z,28.60
2024-02-04T15:51:07.104Z,18.45
2024-02-04T15:53:36.491Z,18.13
2024-02-04T15:56:09.102Z,17.58
2024-02-04T15:58:40.248Z,28.60
2024-02-04T16:01:13.775Z,31.25
2024-02-04T16:03:44.934Z,23.45
2024-02-04T16:06:17.222Z,24.75
2024-02-04T16:08:48.554Z,22.70
2024-02-04T16:11:20.592Z,32.13
2024-02-04T16:13:55.173Z,23.88
2024-02-04T16:16:30.538Z,35.37
2024-02-04T16:19:01.569Z,19.40
2024-02-04T16:21:30.706Z,22.70
2024-02-04T16:24:00.077Z,21.35
2024-02-04T16:26:28.997Z,30.38
2024-02-04T16:28:57.974Z,25.17
2024-02-04T16:31:26.886Z,25.42
2024-02-04T16:33:56.863Z,36.55
2024-02-04T16:36:32.168Z,26.00
2024-02-04T16:39:06.533Z,31.15
2024-02-04T16:41:38.345Z,27.83
2024-02-04T16:44:07.417Z,36.35
2024-02-04T16:46:36.409Z,33.15
2024-02-04T16:49:18.522Z,27.95
2024-02-04T16:51:50.882Z,22.88
2024-02-04T16:54:25.622Z,30.00
2024-02-04T16:56:57.468Z,19.00
2024-02-04T16:59:26.454Z,26.05
2024-02-04T17:01:55.518Z,27.40
2024-02-04T17:04:25.171Z,27.05
2024-02-04T17:06:58.299Z,25.88
2024-02-04T17:09:27.681Z,21.85
2024-02-04T17:11:59.840Z,33.22
2024-02-04T17:14:31.889Z,27.92
2024-02-04T17:17:08.393Z,20.13
2024-02-04T17:22:19.742Z,23.48
2024-02-04T17:24:51.528Z,22.98
2024-02-04T17:27:21.320Z,45.85
2024-02-04T17:29:57.091Z,35.72
2024-02-04T17:32:30.678Z,21.77
2024-02-04T17:34:59.931Z,29.73
2024-02-04T17:37:31.337Z,36.22
2024-02-04T17:40:02.678Z,25.58
2024-02-04T17:42:31.747Z,27.33
2024-02-04T17:45:00.816Z,35.03
2024-02-04T17:47:30.695Z,22.92
2024-02-04T17:49:59.948Z,36.60
2024-02-04T17:52:38.582Z,36.45
2024-02-04T17:55:09.319Z,25.27
2024-02-04T17:57:38.434Z,20.75
2024-02-04T18:00:12.869Z,23.45
2024-02-04T18:02:46.931Z,43.05
2024-02-04T18:05:18.946Z,26.75
2024-02-04T18:07:50.703Z,33.97
2024-02-04T18:10:22.480Z,31.08
2024-02-04T18:12:51.849Z,27.73
2024-02-04T18:15:20.731Z,38.33
2024-02-04T18:17:54.091Z,27.27
2024-02-04T18:20:23.934Z,26.67
2024-02-04T18:22:54.196Z,28.00
2024-02-04T18:25:24.852Z,24.27
2024-02-04T18:27:53.638Z,23.52
2024-02-04T18:30:24.220Z,24.33
2024-02-04T18:32:53.121Z,24.65
2024-02-04T18:35:21.965Z,25.17
2024-02-04T18:37:50.768Z,23.25
2024-02-04T18:40:21.051Z,34.47
2024-02-04T18:42:49.933Z,21.20
2024-02-04T18:45:18.948Z,22.88
2024-02-04T18:47:48.362Z,57.28
2024-02-04T18:50:18.087Z,45.35
2024-02-04T18:52:47.609Z,30.25
2024-02-04T18:55:17.078Z,28.13
2024-02-04T18:57:49.432Z,28.48
2024-02-04T19:00:19.178Z,23.80
2024-02-04T19:02:48.700Z,18.60
2024-02-04T19:05:18.495Z,24.10
2024-02-04T19:07:52.756Z,28.58
2024-02-04T19:10:25.338Z,20.10
2024-02-04T19:12:56.046Z,20.92
2024-02-04T19:15:27.617Z,23.48
2024-02-04T19:17:57.019Z,30.55
2024-02-04T19:20:26.575Z,29.20
2024-02-04T19:22:56.264Z,20.02
2024-02-04T19:25:25.717Z,20.38
2024-02-04T19:27:57.584Z,23.88
2024-02-04T19:30:27.762Z,19.02
2024-02-04T19:32:57.677Z,16.50
2024-02-04T19:35:31.258Z,18.40
2024-02-04T19:38:00.539Z,20.10
2024-02-04T19:40:29.852Z,28.50
2024-02-04T19:43:00.685Z,16.75
2024-02-04T19:45:30.178Z,19.55
2024-02-04T19:48:00.929Z,23.63
2024-02-04T19:50:33.176Z,18.73
2024-02-04T19:53:06.639Z,20.83
2024-02-04T19:55:36.405Z,19.95
2024-02-04T19:58:07.322Z,19.58
2024-02-04T20:00:42.971Z,14.40
2024-02-04T20:03:14.548Z,21.92
2024-02-04T20:05:44.698Z,19.95
2024-02-04T20:08:16.833Z,30.15
2024-02-04T20:10:49.275Z,20.88
2024-02-04T20:13:21.167Z,20.73
2024-02-04T20:15:52.651Z,23.42
2024-02-04T20:18:22.062Z,19.60
2024-02-04T20:20:52.728Z,29.55
2024-02-04T20:23:23.098Z,23.40
2024-02-04T20:25:57.163Z,14.65
2024-02-04T20:28:31.975Z,17.27
2024-02-04T20:31:04.563Z,20.13
2024-02-04T20:33:35.577Z,13.05
2024-02-04T20:36:07.028Z,13.98
2024-02-04T20:38:36.284Z,19.80
2024-02-04T20:41:08.072Z,21.50
2024-02-04T20:43:39.436Z,20.67
2024-02-04T20:46:08.946Z,17.85
2024-02-04T20:48:38.576Z,13.98
2024-02-04T20:51:08.964Z,14.65
2024-02-04T20:53:42.214Z,21.13
2024-02-04T20:56:11.543Z,20.42
2024-02-04T20:58:42.245Z,26.30
2024-02-04T21:01:11.893Z,17.15
2024-02-04T21:03:43.032Z,20.95
2024-02-04T21:06:17.908Z,25.83
2024-02-04T21:08:47.877Z,17.73
2024-02-04T21:11:23.125Z,14.32
2024-02-04T21:13:53.860Z,35.67
2024-02-04T21:16:24.143Z,23.73
2024-02-04T21:18:55.201Z,21.43
2024-02-04T21:21:24.212Z,20.45
2024-02-04T21:23:56.790Z,13.48
2024-02-04T21:26:25.694Z,20.00
2024-02-04T21:28:55.807Z,15.00
2024-02-04T21:31:24.640Z,16.63
2024-02-04T21:33:53.608Z,14.88
2024-02-04T21:36:23.238Z,13.75
2024-02-04T21:38:51.971Z,21.10
2024-02-04T21:41:23.367Z,12.38
2024-02-04T21:43:57.160Z,20.73
2024-02-04T21:46:26.066Z,14.30
2024-02-04T21:48:57.154Z,17.92
2024-02-04T21:51:26.209Z,26.52
2024-02-04T21:53:56.438Z,16.08
2024-02-04T21:56:25.304Z,21.15
2024-02-04T21:58:54.057Z,31.88
2024-02-04T22:01:24.328Z,15.32
2024-02-04T22:03:53.321Z,22.77
2024-02-04T22:06:22.172Z,18.48
2024-02-04T22:08:51.607Z,24.33
2024-02-04T22:11:20.511Z,25.60
2024-02-04T22:13:49.485Z,13.82
2024-02-04T22:16:18.529Z,22.05
2024-02-04T22:18:52.417Z,15.43
2024-02-04T22:21:21.591Z,20.35
2024-02-04T22:23:52.116Z,20.55
2024-02-04T22:26:20.945Z,14.82
2024-02-04T22:28:50.110Z,30.05
2024-02-04T22:31:19.122Z,33.00
2024-02-04T22:34:05.599Z,17.77
2024-02-04T22:36:37.072Z,21.30
2024-02-04T22:39:08.067Z,12.65
2024-02-04T22:41:41.663Z,22.23
2024-02-04T22:44:11.235Z,26.98
2024-02-04T22:46:40.693Z,23.60
2024-02-04T22:49:13.068Z,20.08
2024-02-04T22:51:44.138Z,13.77
2024-02-04T22:54:14.143Z,32.55
2024-02-04T22:56:43.719Z,34.78
2024-02-04T22:59:13.503Z,24.65
2024-02-04T23:01:44.820Z,22.00
2024-02-04T23:04:15.996Z,27.45
2024-02-04T23:06:47.474Z,13.45
2024-02-04T23:09:18.356Z,25.98
2024-02-04T23:11:48.322Z,19.67
2024-02-04T23:14:18.495Z,26.95
2024-02-04T23:16:49.174Z,52.42
2024-02-04T23:19:21.594Z,21.38
2024-02-04T23:21:52.718Z,32.28
2024-02-04T23:24:22.527Z,29.92
2024-02-04T23:26:51.863Z,38.45
2024-02-04T23:29:22.225Z,23.00
2024-02-04T23:31:52.013Z,22.02
2024-02-04T23:34:21.949Z,26.05
2024-02-04T23:36:52.960Z,35.50
2024-02-04T23:39:22.733Z,16.65
2024-02-04T23:41:53.170Z,21.33
2024-02-04T23:44:23.598Z,34.55
2024-02-04T23:46:53.994Z,35.15
2024-02-04T23:49:25.114Z,33.17
2024-02-04T23:51:57.711Z,38.60
2024-02-04T23:54:27.537Z,26.17
2024-02-04T23:56:58.548Z,25.88
2024-02-04T23:59:28.995Z,27.45
